Time;durP1;ratioP1;P1;durP2;ratioP2;P2;SDS_P1;SDS_P2;PMS_P1;PMS_P2;Temp;Humidity;BMP_temperature;BMP_pressure;BME280_temperature;BME280_humidity;BME280_pressure;Samples;Min_cycle;Max_cycle;Signal;HPM_P1;HPM_P2
2023/07/17 00:01:28;;;;;;;15.77;14.27;;;28.50;99.90;;;;;;5087626;28;20177;-75
2023/07/17 00:03:54;;;;;;;16.53;14.70;;;28.50;99.90;;;;;;5087080;28;20181;-75
2023/07/17 00:06:19;;;;;;;16.60;15.00;;;28.60;99.90;;;;;;5087820;28;20262;-77
2023/07/17 00:08:45;;;;;;;14.97;13.77;;;28.60;99.90;;;;;;5085770;28;20195;-81
2023/07/17 00:11:11;;;;;;;15.83;14.40;;;28.60;99.90;;;;;;5085876;28;20526;-78
2023/07/17 00:13:36;;;;;;;17.13;15.43;;;28.60;99.90;;;;;;5087082;28;20398;-75
2023/07/17 00:16:02;;;;;;;16.20;14.57;;;28.60;99.90;;;;;;5085696;28;20429;-75
2023/07/17 00:18:30;;;;;;;16.20;14.73;;;28.60;99.90;;;;;;5086189;28;20281;-81
2023/07/17 00:20:57;;;;;;;16.40;14.97;;;28.50;99.90;;;;;;5086460;28;20178;-81
2023/07/17 00:23:22;;;;;;;16.13;14.63;;;28.50;99.90;;;;;;5087153;28;20430;-82
2023/07/17 00:25:48;;;;;;;16.40;14.77;;;28.40;99.90;;;;;;5087447;28;20410;-75
2023/07/17 00:28:13;;;;;;;17.30;15.60;;;28.40;99.90;;;;;;5087119;28;20274;-81
2023/07/17 00:30:40;;;;;;;17.13;15.63;;;28.30;99.90;;;;;;5086991;28;20176;-74
2023/07/17 00:33:06;;;;;;;17.87;15.77;;;28.20;99.90;;;;;;5086717;28;20356;-82
2023/07/17 00:35:31;;;;;;;18.03;16.43;;;28.20;99.90;;;;;;5087098;28;20992;-80
2023/07/17 00:37:57;;;;;;;17.40;15.83;;;28.20;99.90;;;;;;5086639;28;20205;-81
2023/07/17 00:40:23;;;;;;;17.17;15.60;;;28.30;99.90;;;;;;5086733;28;20440;-74
2023/07/17 00:42:48;;;;;;;17.73;16.13;;;28.20;99.90;;;;;;5086836;28;20554;-81
2023/07/17 00:45:14;;;;;;;18.97;15.93;;;28.10;99.90;;;;;;5086694;28;20176;-81
2023/07/17 00:47:40;;;;;;;17.00;15.50;;;28.10;99.90;;;;;;5085264;28;20196;-75
2023/07/17 00:50:07;;;;;;;21.30;15.37;;;28.00;99.90;;;;;;5085186;28;20176;-82
2023/07/17 00:52:33;;;;;;;16.73;15.30;;;28.00;99.90;;;;;;5085415;28;20608;-75
2023/07/17 00:54:59;;;;;;;17.83;16.20;;;27.90;99.90;;;;;;5086449;28;20461;-75
2023/07/17 00:57:26;;;;;;;17.30;15.80;;;27.80;99.90;;;;;;5086486;28;20564;-74
2023/07/17 00:59:52;;;;;;;15.90;14.60;;;27.70;99.90;;;;;;5086395;28;20983;-81
2023/07/17 01:02:18;;;;;;;17.00;15.50;;;27.70;99.90;;;;;;5086326;28;20464;-81
2023/07/17 01:04:47;;;;;;;18.23;16.53;;;27.60;99.90;;;;;;5085943;28;20180;-74
2023/07/17 01:07:14;;;;;;;18.20;16.40;;;27.60;99.90;;;;;;5084914;28;20565;-81
2023/07/17 01:09:40;;;;;;;18.47;16.77;;;27.50;99.90;;;;;;5084856;28;20421;-82
2023/07/17 01:12:06;;;;;;;16.30;14.90;;;27.50;99.90;;;;;;5084465;28;20576;-81
2023/07/17 01:14:32;;;;;;;17.07;15.27;;;27.40;99.90;;;;;;5086219;28;20184;-81
2023/07/17 01:16:58;;;;;;;17.77;16.20;;;27.30;99.90;;;;;;5084338;28;20671;-81
2023/07/17 01:19:23;;;;;;;18.40;16.80;;;27.30;99.90;;;;;;5084465;28;20313;-81
2023/07/17 01:21:53;;;;;;;18.50;16.90;;;27.30;99.90;;;;;;5085991;28;20188;-82
2023/07/17 01:24:19;;;;;;;18.03;16.50;;;27.20;99.90;;;;;;5084922;28;20177;-81
2023/07/17 01:26:45;;;;;;;19.40;17.60;;;27.20;99.90;;;;;;5084558;28;20546;-75
2023/07/17 01:29:11;;;;;;;18.47;16.67;;;27.20;99.90;;;;;;5085534;28;20442;-74
2023/07/17 01:31:39;;;;;;;20.03;17.10;;;27.10;99.90;;;;;;5084841;28;20176;-75
2023/07/17 01:34:05;;;;;;;17.93;16.40;;;27.10;99.90;;;;;;5085524;28;20168;-74
2023/07/17 01:36:31;;;;;;;21.20;17.13;;;27.10;99.90;;;;;;5085546;28;20468;-74
2023/07/17 01:38:56;;;;;;;19.40;17.80;;;27.00;99.90;;;;;;5085693;28;20180;-75
2023/07/17 01:41:23;;;;;;;18.80;17.00;;;27.00;99.90;;;;;;5085788;28;20524;-78
2023/07/17 01:43:49;;;;;;;19.20;17.33;;;27.10;99.90;;;;;;5085576;28;20189;-74
2023/07/17 01:46:15;;;;;;;18.70;17.00;;;27.10;99.90;;;;;;5085980;28;20401;-75
2023/07/17 01:48:41;;;;;;;18.87;17.07;;;27.10;99.90;;;;;;5084276;28;20425;-81
2023/07/17 01:51:06;;;;;;;18.87;17.23;;;27.10;99.90;;;;;;5084344;28;20176;-75
2023/07/17 01:53:32;;;;;;;21.07;19.00;;;27.20;99.90;;;;;;5085507;28;20188;-81
2023/07/17 01:56:00;;;;;;;18.07;16.57;;;27.20;99.90;;;;;;5085733;28;20251;-75
2023/07/17 01:58:26;;;;;;;19.20;17.53;;;27.30;99.90;;;;;;5084230;28;20491;-81
2023/07/17 02:00:55;;;;;;;20.30;18.53;;;27.30;99.90;;;;;;5084428;28;20699;-74
2023/07/17 02:03:22;;;;;;;19.97;17.83;;;27.20;99.90;;;;;;5085467;28;20192;-81
2023/07/17 02:05:49;;;;;;;20.80;18.73;;;27.20;99.90;;;;;;5085668;28;20443;-82
2023/07/17 02:08:15;;;;;;;20.30;18.47;;;27.20;99.90;;;;;;5085243;28;20918;-81
2023/07/17 02:10:43;;;;;;;19.60;17.80;;;27.20;99.90;;;;;;5085615;28;20413;-75
2023/07/17 02:13:08;;;;;;;18.40;16.60;;;27.20;99.90;;;;;;5084936;28;20608;-81
2023/07/17 02:15:34;;;;;;;18.90;17.10;;;27.20;99.90;;;;;;5084335;28;20461;-82
2023/07/17 02:18:00;;;;;;;19.27;17.47;;;27.20;99.90;;;;;;5085460;28;20192;-81
2023/07/17 02:20:25;;;;;;;19.73;17.80;;;27.10;99.90;;;;;;5085158;28;20172;-81
2023/07/17 02:22:51;;;;;;;19.63;17.67;;;27.10;99.90;;;;;;5083327;28;20241;-74
2023/07/17 02:25:17;;;;;;;18.90;17.20;;;27.10;99.90;;;;;;5085200;28;20184;-75
2023/07/17 02:27:43;;;;;;;20.23;18.33;;;27.10;99.90;;;;;;5083884;28;20566;-75
2023/07/17 02:30:09;;;;;;;20.03;18.33;;;27.10;99.90;;;;;;5085354;28;20414;-74
2023/07/17 02:32:35;;;;;;;20.67;18.77;;;27.10;99.90;;;;;;5083298;28;20197;-82
2023/07/17 02:35:00;;;;;;;19.37;17.77;;;27.00;99.90;;;;;;5083637;28;20420;-74
2023/07/17 02:37:26;;;;;;;20.53;18.73;;;27.10;99.90;;;;;;5084832;28;20212;-82
2023/07/17 02:39:52;;;;;;;19.97;18.07;;;27.10;99.90;;;;;;5084840;28;20474;-82
2023/07/17 02:42:18;;;;;;;19.30;17.43;;;27.10;99.90;;;;;;5088230;28;20664;-75
2023/07/17 02:44:45;;;;;;;21.90;19.90;;;27.10;99.90;;;;;;5088835;28;20419;-75
2023/07/17 02:47:10;;;;;;;20.20;18.43;;;27.10;99.90;;;;;;5088905;28;20689;-75
2023/07/17 02:49:38;;;;;;;20.53;18.63;;;27.10;99.90;;;;;;5089026;28;20424;-81
2023/07/17 02:52:04;;;;;;;21.50;19.20;;;27.20;99.90;;;;;;5087214;28;20204;-74
2023/07/17 02:54:30;;;;;;;20.63;18.53;;;27.30;99.90;;;;;;5088709;28;20941;-75
2023/07/17 02:56:56;;;;;;;21.00;18.97;;;27.30;99.90;;;;;;5089170;28;20477;-81
2023/07/17 02:59:22;;;;;;;19.37;17.50;;;27.40;99.90;;;;;;5088782;28;20207;-75
2023/07/17 03:01:48;;;;;;;24.27;18.17;;;27.40;99.90;;;;;;5088547;28;20216;-75
2023/07/17 03:04:14;;;;;;;19.47;17.83;;;27.40;99.90;;;;;;5088320;28;20192;-74
2023/07/17 03:06:40;;;;;;;19.73;17.93;;;27.40;99.90;;;;;;5087045;28;20176;-74
2023/07/17 03:09:06;;;;;;;20.23;18.27;;;27.50;99.90;;;;;;5088196;28;20429;-81
2023/07/17 03:11:32;;;;;;;19.73;18.13;;;27.50;99.90;;;;;;5087083;28;20504;-74
2023/07/17 03:13:58;;;;;;;21.80;19.70;;;27.50;99.90;;;;;;5088305;28;20547;-82
2023/07/17 03:16:23;;;;;;;19.47;17.77;;;27.50;99.90;;;;;;5088304;28;20465;-81
2023/07/17 03:18:49;;;;;;;21.80;19.70;;;27.40;99.90;;;;;;5088137;28;20558;-75
2023/07/17 03:21:15;;;;;;;19.97;18.27;;;27.40;99.90;;;;;;5088096;28;20191;-74
2023/07/17 03:23:40;;;;;;;20.63;18.80;;;27.40;99.90;;;;;;5086979;28;20193;-74
2023/07/17 03:26:06;;;;;;;20.10;18.20;;;27.40;99.90;;;;;;5088319;28;20676;-74
2023/07/17 03:28:32;;;;;;;20.00;18.30;;;27.40;99.90;;;;;;5088169;28;20188;-75
2023/07/17 03:30:57;;;;;;;21.50;19.20;;;27.20;99.90;;;;;;5086719;28;20359;-74
2023/07/17 03:33:25;;;;;;;22.00;20.00;;;27.10;99.90;;;;;;5086632;28;20197;-81
2023/07/17 03:35:50;;;;;;;20.30;18.40;;;27.10;99.90;;;;;;5086694;28;20403;-74
2023/07/17 03:38:16;;;;;;;20.33;18.40;;;27.10;99.90;;;;;;5085025;28;20783;-75
2023/07/17 03:40:42;;;;;;;21.37;19.07;;;27.10;99.90;;;;;;5088271;28;20172;-81
2023/07/17 03:43:07;;;;;;;23.03;20.07;;;27.10;99.90;;;;;;5087959;28;20200;-79
2023/07/17 03:45:33;;;;;;;22.27;18.43;;;27.10;99.90;;;;;;5088032;28;20177;-75
2023/07/17 03:47:59;;;;;;;21.00;18.90;;;27.00;99.90;;;;;;5087514;28;20196;-75
2023/07/17 03:50:25;;;;;;;20.70;18.90;;;27.00;99.90;;;;;;5087777;28;20168;-82
2023/07/17 03:52:50;;;;;;;21.93;19.87;;;27.10;99.90;;;;;;5086753;28;20198;-74
2023/07/17 03:55:16;;;;;;;21.30;19.07;;;27.10;99.90;;;;;;5086005;28;20853;-81
2023/07/17 03:57:41;;;;;;;20.23;18.30;;;27.10;99.90;;;;;;5086137;28;20273;-75
2023/07/17 04:00:13;;;;;;;23.13;19.07;;;27.20;99.90;;;;;;5087484;28;20160;-76
2023/07/17 04:02:42;;;;;;;21.17;19.13;;;27.10;99.90;;;;;;5085793;28;20208;-75
2023/07/17 04:05:08;;;;;;;21.10;18.97;;;27.20;99.90;;;;;;5087472;28;20433;-81
2023/07/17 04:07:33;;;;;;;20.13;18.33;;;27.20;99.90;;;;;;5087018;28;20429;-75
2023/07/17 04:09:59;;;;;;;23.00;20.77;;;27.20;99.90;;;;;;5087278;28;20504;-75
2023/07/17 04:12:24;;;;;;;21.27;19.00;;;27.30;99.90;;;;;;5086872;28;20253;-81
2023/07/17 04:14:50;;;;;;;20.73;18.83;;;27.20;99.90;;;;;;5086641;28;20196;-75
2023/07/17 04:17:16;;;;;;;21.63;19.37;;;27.20;99.90;;;;;;5086786;28;20227;-75
2023/07/17 04:19:41;;;;;;;18.63;16.90;;;27.20;99.90;;;;;;5085618;28;20267;-75
2023/07/17 04:22:07;;;;;;;20.47;18.47;;;27.20;99.90;;;;;;5086082;28;21072;-76
2023/07/17 04:24:34;;;;;;;20.60;18.60;;;27.30;99.90;;;;;;5086590;28;20186;-80
2023/07/17 04:27:00;;;;;;;19.90;18.20;;;27.20;99.90;;;;;;5086750;28;20269;-75
2023/07/17 04:29:25;;;;;;;20.37;18.70;;;27.30;99.90;;;;;;5086782;28;20417;-81
2023/07/17 04:31:51;;;;;;;19.93;18.10;;;27.40;99.90;;;;;;5090881;28;20192;-75
2023/07/17 04:34:17;;;;;;;18.80;16.60;;;27.40;99.90;;;;;;5092995;28;20188;-75
2023/07/17 04:36:43;;;;;;;19.30;17.60;;;27.40;99.90;;;;;;5085324;28;20213;-81
2023/07/17 04:39:08;;;;;;;21.40;17.23;;;27.40;99.90;;;;;;5095297;28;20427;-74
2023/07/17 04:41:34;;;;;;;18.83;17.13;;;27.50;99.90;;;;;;5107124;28;20233;-81
2023/07/17 04:44:00;;;;;;;22.13;19.30;;;27.50;99.90;;;;;;5103343;28;20176;-74
2023/07/17 04:46:25;;;;;;;19.67;17.77;;;27.60;99.90;;;;;;5094268;28;20271;-75
2023/07/17 04:48:51;;;;;;;19.27;17.67;;;27.60;99.90;;;;;;5095044;28;20191;-81
2023/07/17 04:51:17;;;;;;;19.80;18.00;;;27.70;99.90;;;;;;5096803;28;20229;-75
2023/07/17 04:53:42;;;;;;;18.30;16.40;;;27.80;99.90;;;;;;5096169;28;20200;-75
2023/07/17 04:56:08;;;;;;;18.43;16.77;;;27.80;99.90;;;;;;5096808;28;20215;-80
2023/07/17 04:58:34;;;;;;;17.47;15.87;;;27.80;99.90;;;;;;5096920;28;20192;-75
2023/07/17 05:01:01;;;;;;;17.27;15.77;;;27.90;99.90;;;;;;5096467;28;20200;-81
2023/07/17 05:03:29;;;;;;;19.07;17.13;;;28.00;99.90;;;;;;5093828;28;20197;-82
2023/07/17 05:05:55;;;;;;;16.30;14.80;;;28.00;99.90;;;;;;5096054;28;20425;-75
2023/07/17 05:08:20;;;;;;;17.20;15.80;;;28.10;99.90;;;;;;5095589;28;20459;-75
2023/07/17 05:10:56;;;;;;;25.17;22.57;;;28.20;99.90;;;;;;5095753;28;20181;-81
2023/07/17 05:13:22;;;;;;;19.30;17.70;;;28.30;99.90;;;;;;5095373;28;20238;-82
2023/07/17 05:15:49;;;;;;;18.77;16.97;;;28.30;99.90;;;;;;5096165;28;20806;-81
2023/07/17 05:18:14;;;;;;;19.23;17.00;;;28.40;99.90;;;;;;5094319;28;20429;-82
2023/07/17 05:20:44;;;;;;;16.87;15.47;;;28.50;99.90;;;;;;5095518;28;20459;-82
2023/07/17 05:23:09;;;;;;;17.60;15.90;;;28.60;99.90;;;;;;5096006;28;20238;-75
2023/07/17 05:25:35;;;;;;;16.23;14.93;;;28.60;99.90;;;;;;5095108;28;20438;-82
2023/07/17 05:28:01;;;;;;;16.73;15.20;;;28.60;99.90;;;;;;5105289;28;20207;-82
2023/07/17 05:30:26;;;;;;;20.30;16.03;;;28.70;99.90;;;;;;5100318;28;20225;-81
2023/07/17 05:32:52;;;;;;;15.80;14.17;;;28.80;99.90;;;;;;5101998;28;20184;-75
2023/07/17 05:35:17;;;;;;;16.83;13.70;;;28.80;99.90;;;;;;5096039;28;20748;-75
2023/07/17 05:37:43;;;;;;;15.30;13.80;;;28.80;99.90;;;;;;5083456;28;20425;-75
2023/07/17 05:40:10;;;;;;;15.17;13.87;;;28.80;99.90;;;;;;5096420;28;20685;-82
2023/07/17 05:42:36;;;;;;;16.03;14.47;;;29.00;99.90;;;;;;5095535;28;20236;-75
2023/07/17 05:45:03;;;;;;;14.70;13.17;;;29.00;99.90;;;;;;5090156;28;20898;-76
2023/07/17 05:47:29;;;;;;;14.50;13.27;;;29.10;99.90;;;;;;5086963;28;20206;-75
2023/07/17 05:49:54;;;;;;;16.63;13.87;;;29.20;99.90;;;;;;5096957;28;20448;-75
2023/07/17 05:52:20;;;;;;;14.83;13.27;;;29.20;99.90;;;;;;5093267;28;20206;-75
2023/07/17 05:54:46;;;;;;;14.80;12.80;;;29.20;99.90;;;;;;5079947;28;20197;-82
2023/07/17 05:57:12;;;;;;;15.40;13.77;;;29.30;99.90;;;;;;5084657;28;20220;-75
2023/07/17 05:59:37;;;;;;;15.47;14.10;;;29.40;99.90;;;;;;5099061;28;20515;-75
2023/07/17 06:02:03;;;;;;;15.10;13.60;;;29.50;99.90;;;;;;5093368;28;20474;-82
2023/07/17 06:04:29;;;;;;;15.77;14.10;;;29.50;99.90;;;;;;5099813;28;20480;-75
2023/07/17 06:06:54;;;;;;;18.00;14.53;;;29.60;99.90;;;;;;5094874;28;20203;-82
2023/07/17 06:09:20;;;;;;;13.53;12.33;;;29.50;99.90;;;;;;5094428;28;20212;-75
2023/07/17 06:11:46;;;;;;;15.10;13.63;;;29.60;99.90;;;;;;5089286;28;20273;-75
2023/07/17 06:14:11;;;;;;;15.87;14.50;;;29.60;99.90;;;;;;5091985;28;20250;-75
2023/07/17 06:16:37;;;;;;;14.73;13.20;;;29.80;99.90;;;;;;5103451;28;20255;-82
2023/07/17 06:19:03;;;;;;;17.83;14.33;;;29.80;99.90;;;;;;5102245;28;20181;-82
2023/07/17 06:21:29;;;;;;;15.30;13.87;;;29.80;99.90;;;;;;5100239;28;20449;-82
2023/07/17 06:23:54;;;;;;;14.37;13.07;;;29.90;99.90;;;;;;5089971;28;20182;-75
2023/07/17 06:26:20;;;;;;;13.97;12.87;;;30.00;99.90;;;;;;5088367;28;20240;-75
2023/07/17 06:28:47;;;;;;;14.60;13.20;;;30.10;99.90;;;;;;5102537;28;20514;-75
2023/07/17 06:31:13;;;;;;;16.23;13.70;;;30.20;99.90;;;;;;5107247;28;20209;-75
2023/07/17 06:33:38;;;;;;;16.80;12.70;;;30.30;99.90;;;;;;5104039;28;20643;-75
2023/07/17 06:36:04;;;;;;;14.10;12.80;;;30.30;99.90;;;;;;5089333;28;20265;-75
2023/07/17 06:38:30;;;;;;;14.60;13.40;;;30.40;99.90;;;;;;5115384;27;20787;-75
2023/07/17 06:40:56;;;;;;;12.40;11.30;;;30.40;99.90;;;;;;5108011;28;20182;-82
2023/07/17 06:43:21;;;;;;;13.03;11.10;;;30.50;99.90;;;;;;5098517;28;20212;-82
2023/07/17 06:45:47;;;;;;;11.57;10.57;;;30.60;99.90;;;;;;5088143;28;20652;-81
2023/07/17 06:48:13;;;;;;;14.13;12.90;;;30.60;99.90;;;;;;5104068;28;20210;-81
2023/07/17 06:50:39;;;;;;;12.13;10.37;;;30.70;99.90;;;;;;5098032;28;20804;-82
2023/07/17 06:53:05;;;;;;;12.80;11.60;;;30.80;99.90;;;;;;5088517;28;20262;-83
2023/07/17 06:55:30;;;;;;;10.80;9.80;;;30.90;99.90;;;;;;5101945;28;20182;-76
2023/07/17 06:57:56;;;;;;;11.73;8.90;;;31.00;99.90;;;;;;5094957;28;20453;-82
2023/07/17 07:00:21;;;;;;;11.07;9.90;;;31.10;99.90;;;;;;5092323;28;20191;-85
2023/07/17 07:02:47;;;;;;;14.30;9.67;;;31.20;99.90;;;;;;5094983;27;20265;-81
2023/07/17 07:05:13;;;;;;;14.67;9.67;;;31.20;99.90;;;;;;5090640;28;20234;-84
2023/07/17 07:07:39;;;;;;;11.77;9.40;;;31.30;99.90;;;;;;5093711;28;20207;-76
2023/07/17 07:10:06;;;;;;;10.50;9.27;;;31.50;99.90;;;;;;5092900;28;20176;-76
2023/07/17 07:12:31;;;;;;;9.37;8.67;;;31.50;99.90;;;;;;5094609;28;20512;-83
2023/07/17 07:14:57;;;;;;;9.40;8.67;;;31.50;99.90;;;;;;5091762;28;20855;-83
2023/07/17 07:17:23;;;;;;;8.43;7.73;;;31.60;99.90;;;;;;5091699;28;20218;-76
2023/07/17 07:19:51;;;;;;;8.63;8.03;;;31.60;99.90;;;;;;5091644;28;20626;-75
2023/07/17 07:22:16;;;;;;;12.50;8.10;;;31.50;99.90;;;;;;5090520;28;20290;-75
2023/07/17 07:24:45;;;;;;;8.03;7.30;;;31.60;99.90;;;;;;5093527;28;20519;-82
2023/07/17 07:27:10;;;;;;;9.60;7.80;;;31.80;99.90;;;;;;5091424;28;20435;-82
2023/07/17 07:29:36;;;;;;;9.60;7.73;;;31.90;99.90;;;;;;5086879;28;20498;-81
2023/07/17 07:32:02;;;;;;;7.83;7.00;;;32.00;99.90;;;;;;5092610;28;20726;-81
2023/07/17 07:34:28;;;;;;;8.60;7.80;;;32.10;99.90;;;;;;5082043;28;20184;-75
2023/07/17 07:36:53;;;;;;;8.10;7.40;;;32.10;99.90;;;;;;5088711;28;20220;-82
2023/07/17 07:39:19;;;;;;;8.27;7.50;;;32.20;99.90;;;;;;5096974;28;20171;-81
2023/07/17 07:41:45;;;;;;;7.23;6.73;;;32.00;99.90;;;;;;5099805;28;20200;-79
2023/07/17 07:44:11;;;;;;;8.87;8.07;;;31.90;99.90;;;;;;5096013;27;20178;-77
2023/07/17 07:46:36;;;;;;;8.95;8.15;;;32.00;99.90;;;;;;5099913;28;20690;-79
2023/07/17 07:49:03;;;;;;;9.70;8.10;;;32.30;99.90;;;;;;5095713;28;20452;-78
2023/07/17 07:51:29;;;;;;;8.20;7.40;;;32.60;99.90;;;;;;5091704;28;20447;-78
2023/07/17 07:53:54;;;;;;;12.52;11.23;;;32.80;99.90;;;;;;5099032;28;20408;-75
2023/07/17 07:56:20;;;;;;;19.65;17.95;;;33.00;99.90;;;;;;5093012;28;20658;-77
2023/07/17 07:58:46;;;;;;;9.47;8.77;;;33.30;99.90;;;;;;5097548;28;20197;-79
2023/07/17 08:01:12;;;;;;;9.53;8.83;;;33.40;99.90;;;;;;5085877;28;20234;-76
2023/07/17 08:03:40;;;;;;;8.97;8.33;;;33.60;99.90;;;;;;5092013;28;20210;-80
2023/07/17 08:06:06;;;;;;;9.70;9.00;;;33.80;99.90;;;;;;5104523;28;20424;-76
2023/07/17 08:08:31;;;;;;;10.97;9.03;;;33.90;99.90;;;;;;5105269;28;20457;-77
2023/07/17 08:10:58;;;;;;;9.80;9.10;;;34.10;99.90;;;;;;5104151;28;20842;-80
2023/07/17 08:13:23;;;;;;;10.63;9.53;;;34.30;99.90;;;;;;5099337;28;20219;-80
2023/07/17 08:15:49;;;;;;;10.23;9.33;;;34.40;99.90;;;;;;5093019;28;20456;-77
2023/07/17 08:18:16;;;;;;;12.00;9.10;;;34.60;99.90;;;;;;5080559;28;20204;-76
2023/07/17 08:20:42;;;;;;;10.03;9.10;;;34.70;99.90;;;;;;5084627;28;20458;-81
2023/07/17 08:23:08;;;;;;;10.40;9.50;;;34.90;99.90;;;;;;5094210;28;20458;-78
2023/07/17 08:25:33;;;;;;;9.97;9.17;;;35.00;99.90;;;;;;5088101;28;20428;-77
2023/07/17 08:27:59;;;;;;;10.20;9.30;;;35.00;99.90;;;;;;5101442;28;20253;-77
2023/07/17 08:30:25;;;;;;;9.37;8.77;;;35.00;99.90;;;;;;5096767;28;20639;-77
2023/07/17 08:32:50;;;;;;;9.53;8.93;;;35.10;99.60;;;;;;5095289;28;20207;-80
2023/07/17 08:35:16;;;;;;;10.67;9.53;;;35.30;99.30;;;;;;5098805;28;20765;-76
2023/07/17 08:37:42;;;;;;;9.33;8.60;;;35.40;99.20;;;;;;5096380;28;20216;-80
2023/07/17 08:40:10;;;;;;;9.90;9.20;;;35.60;98.90;;;;;;5085638;28;20337;-77
2023/07/17 08:42:37;;;;;;;10.60;9.70;;;35.70;98.00;;;;;;5087368;28;20212;-80
2023/07/17 08:45:04;;;;;;;9.57;8.80;;;35.70;98.00;;;;;;5095146;28;20427;-80
2023/07/17 08:47:31;;;;;;;9.50;8.70;;;35.80;97.90;;;;;;5093635;28;20455;-80
2023/07/17 08:49:58;;;;;;;9.60;8.90;;;35.80;98.20;;;;;;5090035;28;20453;-77
2023/07/17 08:52:28;;;;;;;9.83;9.03;;;35.80;97.70;;;;;;5079941;28;20417;-80
2023/07/17 08:54:53;;;;;;;10.27;9.33;;;36.00;97.00;;;;;;5082298;28;20431;-77
2023/07/17 08:57:20;;;;;;;10.37;9.57;;;36.20;96.00;;;;;;5100977;28;20980;-80
2023/07/17 08:59:46;;;;;;;9.50;8.60;;;36.20;96.20;;;;;;5099740;28;20176;-80
2023/07/17 09:02:11;;;;;;;9.60;8.70;;;36.40;95.90;;;;;;5095925;28;20454;-77
2023/07/17 09:04:37;;;;;;;9.63;9.03;;;36.50;95.70;;;;;;5092528;28;20548;-80
2023/07/17 09:07:03;;;;;;;9.63;8.93;;;36.50;95.60;;;;;;5082518;28;20702;-80
2023/07/17 09:09:29;;;;;;;9.70;8.90;;;36.60;95.70;;;;;;5094818;28;20414;-80
2023/07/17 09:12:11;;;;;;;11.50;8.60;;;36.70;95.20;;;;;;5090986;28;20196;-80
2023/07/17 09:14:37;;;;;;;8.77;8.07;;;36.80;95.20;;;;;;5085083;28;20191;-77
2023/07/17 09:17:07;;;;;;;8.70;7.93;;;36.80;94.80;;;;;;5094377;28;20504;-80
2023/07/17 09:19:34;;;;;;;8.90;8.00;;;36.90;94.50;;;;;;5092887;28;20424;-77
2023/07/17 09:22:05;;;;;;;9.37;8.47;;;37.00;93.70;;;;;;5088181;28;21095;-77
2023/07/17 09:24:36;;;;;;;9.13;8.33;;;37.00;93.30;;;;;;5096377;28;20512;-80
2023/07/17 09:27:06;;;;;;;13.30;8.20;;;37.10;93.40;;;;;;5098054;28;20975;-77
2023/07/17 09:29:32;;;;;;;8.37;7.67;;;37.20;93.30;;;;;;5090487;28;20985;-77
2023/07/17 09:32:14;;;;;;;8.27;7.67;;;37.30;92.90;;;;;;5095039;28;20456;-79
2023/07/17 09:34:39;;;;;;;8.00;7.40;;;37.40;92.70;;;;;;5093993;28;20748;-81
2023/07/17 09:37:09;;;;;;;9.30;8.40;;;37.40;92.30;;;;;;5096472;28;21047;-77
2023/07/17 09:39:38;;;;;;;7.67;7.00;;;37.60;92.00;;;;;;5101146;28;20192;-77
2023/07/17 09:42:04;;;;;;;10.40;7.80;;;37.70;92.40;;;;;;5102275;28;20534;-78
2023/07/17 09:44:32;;;;;;;8.43;7.73;;;37.80;91.70;;;;;;5080216;28;20524;-77
2023/07/17 09:46:58;;;;;;;8.00;7.30;;;37.90;91.80;;;;;;5082007;28;20437;-80
2023/07/17 09:49:24;;;;;;;7.57;7.03;;;37.90;91.20;;;;;;5098469;28;20438;-77
2023/07/17 09:51:50;;;;;;;8.47;7.77;;;37.80;91.00;;;;;;5091612;28;21035;-77
2023/07/17 09:54:17;;;;;;;8.13;7.43;;;37.80;91.30;;;;;;5087099;28;20432;-78
2023/07/17 09:56:44;;;;;;;7.97;7.07;;;38.00;91.10;;;;;;5094861;28;21135;-80
2023/07/17 09:59:24;;;;;;;8.30;7.60;;;38.00;90.90;;;;;;5079736;28;20742;-77
2023/07/17 10:01:52;;;;;;;9.50;8.60;;;38.00;90.90;;;;;;5093462;28;20444;-81
2023/07/17 10:04:29;;;;;;;10.37;9.57;;;38.00;91.00;;;;;;5099121;28;20738;-81
2023/07/17 10:06:57;;;;;;;8.53;7.73;;;38.10;91.00;;;;;;5095050;28;20947;-81
2023/07/17 10:09:25;;;;;;;9.20;8.07;;;38.10;90.80;;;;;;5088541;28;20424;-78
2023/07/17 10:11:51;;;;;;;8.53;7.57;;;38.20;90.80;;;;;;5099024;28;20512;-77
2023/07/17 10:14:19;;;;;;;8.90;7.97;;;38.30;90.30;;;;;;5099795;28;20924;-81
2023/07/17 10:16:44;;;;;;;9.60;8.73;;;38.40;90.30;;;;;;5093690;28;20736;-78
2023/07/17 10:19:10;;;;;;;8.80;8.10;;;38.40;90.20;;;;;;5080087;28;21098;-81
2023/07/17 10:21:55;;;;;;;10.07;7.90;;;38.50;90.00;;;;;;5081131;28;20203;-81
2023/07/17 10:24:24;;;;;;;9.00;7.40;;;38.60;89.80;;;;;;5082404;28;20618;-81
2023/07/17 10:26:50;;;;;;;8.77;7.97;;;38.60;89.10;;;;;;5093502;28;20479;-77
2023/07/17 10:29:30;;;;;;;12.40;11.23;;;38.60;88.30;;;;;;5087995;28;20520;-80
2023/07/17 10:31:57;;;;;;;9.03;8.33;;;38.70;88.30;;;;;;5093424;28;20212;-81
2023/07/17 10:34:47;;;;;;;7.73;7.03;;;38.70;88.30;;;;;;5085724;28;20432;-77
2023/07/17 10:37:38;;;;;;;8.60;8.00;;;38.50;88.60;;;;;;5095353;28;20895;-81
2023/07/17 10:40:05;;;;;;;8.10;7.25;;;38.50;88.10;;;;;;5094473;28;20430;-78
2023/07/17 10:42:32;;;;;;;9.50;7.73;;;38.70;87.30;;;;;;5092204;28;20227;-81
2023/07/17 10:45:11;;;;;;;9.10;8.20;;;38.70;86.70;;;;;;5095749;28;20432;-78
2023/07/17 10:47:37;;;;;;;8.90;8.07;;;38.70;87.00;;;;;;5091417;28;20474;-77
2023/07/17 10:50:04;;;;;;;8.73;7.20;;;38.60;87.00;;;;;;5082331;28;20424;-77
2023/07/17 10:52:34;;;;;;;12.33;8.50;;;38.70;86.90;;;;;;5091340;28;20227;-78
2023/07/17 10:55:06;;;;;;;8.33;6.90;;;38.70;86.10;;;;;;5094852;28;20630;-78
2023/07/17 10:57:32;;;;;;;8.03;7.23;;;38.70;86.00;;;;;;5088896;28;20479;-81
2023/07/17 10:59:59;;;;;;;13.23;7.70;;;38.70;86.30;;;;;;5082239;28;20911;-78
2023/07/17 11:02:26;;;;;;;8.87;7.60;;;38.70;86.40;;;;;;5090408;28;20443;-81
2023/07/17 11:05:01;;;;;;;7.47;6.70;;;38.80;85.60;;;;;;5095043;28;20499;-78
2023/07/17 11:07:31;;;;;;;8.03;7.40;;;38.70;85.60;;;;;;5092811;28;21055;-81
2023/07/17 11:09:56;;;;;;;9.37;7.87;;;38.80;86.20;;;;;;5096580;28;20408;-77
2023/07/17 11:12:25;;;;;;;8.67;7.00;;;38.80;86.20;;;;;;5098420;28;20495;-77
2023/07/17 11:14:53;;;;;;;8.13;7.40;;;38.80;86.30;;;;;;5096146;27;20513;-81
2023/07/17 11:17:19;;;;;;;9.30;8.20;;;38.90;84.50;;;;;;5098491;28;21038;-81
2023/07/17 11:19:45;;;;;;;14.33;8.70;;;38.80;85.50;;;;;;5100419;28;20424;-78
2023/07/17 11:22:12;;;;;;;8.93;8.03;;;38.70;85.00;;;;;;5090869;28;20244;-81
2023/07/17 11:24:38;;;;;;;9.07;8.17;;;38.70;83.50;;;;;;5092030;28;20268;-80
2023/07/17 11:27:05;;;;;;;8.47;7.73;;;38.70;83.90;;;;;;5086394;28;20468;-77
2023/07/17 11:29:39;;;;;;;9.80;7.90;;;38.70;85.60;;;;;;5089838;28;20633;-77
2023/07/17 11:32:06;;;;;;;9.60;8.63;;;38.70;85.10;;;;;;5093991;28;20451;-78
2023/07/17 11:34:36;;;;;;;9.00;7.70;;;38.70;84.90;;;;;;5091524;28;20558;-78
2023/07/17 11:37:03;;;;;;;8.03;7.10;;;38.80;83.20;;;;;;5089232;28;20479;-80
2023/07/17 11:39:32;;;;;;;8.00;6.77;;;38.70;83.10;;;;;;5087032;28;20420;-80
2023/07/17 11:41:58;;;;;;;7.80;7.00;;;38.80;82.50;;;;;;5091387;28;20549;-78
2023/07/17 11:44:32;;;;;;;7.90;7.10;;;38.80;81.70;;;;;;5101741;28;20675;-78
2023/07/17 11:47:08;;;;;;;8.10;7.50;;;38.90;81.60;;;;;;5101074;28;21159;-78
2023/07/17 11:49:34;;;;;;;7.43;6.83;;;39.00;81.30;;;;;;5103187;28;20424;-81
2023/07/17 11:52:01;;;;;;;8.07;7.40;;;39.10;80.40;;;;;;5103007;28;20496;-80
2023/07/17 11:54:29;;;;;;;8.50;7.77;;;39.10;81.20;;;;;;5090453;28;20424;-81
2023/07/17 11:57:00;;;;;;;7.97;7.40;;;39.20;81.70;;;;;;5099386;28;20471;-78
2023/07/17 11:59:26;;;;;;;8.20;7.53;;;39.40;81.40;;;;;;5092898;28;20438;-81
2023/07/17 12:01:52;;;;;;;10.40;7.60;;;39.50;81.70;;;;;;5104646;28;20873;-81
2023/07/17 12:04:23;;;;;;;8.17;7.40;;;39.60;79.30;;;;;;5086959;28;20628;-81
2023/07/17 12:06:49;;;;;;;8.73;8.03;;;39.60;77.70;;;;;;5082946;28;20234;-78
2023/07/17 12:09:17;;;;;;;8.27;7.50;;;39.50;80.60;;;;;;5082367;28;20436;-78
2023/07/17 12:11:44;;;;;;;9.17;6.97;;;39.50;78.80;;;;;;5081959;28;20513;-77
2023/07/17 12:14:10;;;;;;;7.43;6.63;;;39.50;79.00;;;;;;5082066;28;21041;-81
2023/07/17 12:16:36;;;;;;;7.93;7.10;;;39.60;76.30;;;;;;5100619;28;20471;-81
2023/07/17 12:19:03;;;;;;;13.27;7.10;;;39.70;78.70;;;;;;5100667;28;20235;-82
2023/07/17 12:21:29;;;;;;;7.70;7.00;;;39.70;77.50;;;;;;5095308;28;20184;-77
2023/07/17 12:23:54;;;;;;;7.60;6.90;;;39.60;78.50;;;;;;5095179;28;20987;-81
2023/07/17 12:26:20;;;;;;;10.77;7.43;;;39.70;77.60;;;;;;5099413;28;20826;-81
2023/07/17 12:28:45;;;;;;;9.00;8.20;;;39.80;79.50;;;;;;5079304;28;20439;-80
2023/07/17 12:31:11;;;;;;;8.23;6.83;;;40.00;78.80;;;;;;5090181;28;20190;-80
2023/07/17 12:33:37;;;;;;;7.73;7.13;;;40.10;78.20;;;;;;5103004;28;20195;-81